Ironia, New Jersey
Current Conditions -  °F | °C
As of 5:15 AM on Sunday 23 Nov 2014 (Local Time) from KMMU Reporting Station
NA  
Wind Chill: 43°   Ceiling: NA
Heat Index: 43°   Visibility: 10mi
Dew Point: 21°   Wind: 3mph
Humidity: 42%   Direction: 210°SSW
Pressure: 30.18"   Gusts: NA
Location:  40.82°N, 74.63°W
Report Text: KMMU 231015Z AUTO 21003KT 10SM 06/M06 A3018 RMK AO2
Loading
Personal Weather Stations






























Interactive Weather Map New forecast layout! Learn more

10-Day Weather Forecast

Advertisements
Track Severe Weather on mobile